sensor_id;sensor_type;location;lat;lon;timestamp;pressure;altitude;pressure_sealevel;temperature;humidity
51417;BME280;50158;51.528;6.982;2023-01-04T00:00:20;67270;;;8.27;100
51417;BME280;50158;51.528;6.982;2023-01-04T00:02:15;67270;;;8.3;100
51417;BME280;50158;51.528;6.982;2023-01-04T00:03:15;67280;;;8.31;100
51417;BME280;50158;51.528;6.982;2023-01-04T00:04:15;67270;;;8.31;100
51417;BME280;50158;51.528;6.982;2023-01-04T00:05:15;67270;;;8.29;100
51417;BME280;50158;51.528;6.982;2023-01-04T00:06:15;67270;;;8.26;100
51417;BME280;50158;51.528;6.982;2023-01-04T00:07:14;67280;;;8.33;100
51417;BME280;50158;51.528;6.982;2023-01-04T00:08:15;67280;;;8.32;100
51417;BME280;50158;51.528;6.982;2023-01-04T00:09:15;67270;;;8.25;100
51417;BME280;50158;51.528;6.982;2023-01-04T00:10:15;67280;;;8.39;100
51417;BME280;50158;51.528;6.982;2023-01-04T00:11:17;67280;;;8.37;100
51417;BME280;50158;51.528;6.982;2023-01-04T00:12:14;67280;;;8.37;100
51417;BME280;50158;51.528;6.982;2023-01-04T00:13:15;67280;;;8.35;100
51417;BME280;50158;51.528;6.982;2023-01-04T00:14:15;67270;;;8.3;100
51417;BME280;50158;51.528;6.982;2023-01-04T00:15:15;67280;;;8.32;100
51417;BME280;50158;51.528;6.982;2023-01-04T00:16:17;67280;;;8.41;100
51417;BME280;50158;51.528;6.982;2023-01-04T00:18:15;67280;;;8.38;100
51417;BME280;50158;51.528;6.982;2023-01-04T00:19:15;67290;;;8.43;100
51417;BME280;50158;51.528;6.982;2023-01-04T00:20:14;67290;;;8.47;100
51417;BME280;50158;51.528;6.982;2023-01-04T00:21:16;67290;;;8.47;100
51417;BME280;50158;51.528;6.982;2023-01-04T00:22:15;67310;;;8.59;100
51417;BME280;50158;51.528;6.982;2023-01-04T00:23:15;67310;;;8.62;100
51417;BME280;50158;51.528;6.982;2023-01-04T00:24:15;67310;;;8.6;100
51417;BME280;50158;51.528;6.982;2023-01-04T00:25:14;67300;;;8.56;100
51417;BME280;50158;51.528;6.982;2023-01-04T00:26:17;67300;;;8.55;100
51417;BME280;50158;51.528;6.982;2023-01-04T00:27:15;67310;;;8.6;100
51417;BME280;50158;51.528;6.982;2023-01-04T00:28:14;67310;;;8.62;100
51417;BME280;50158;51.528;6.982;2023-01-04T00:29:15;67320;;;8.68;100
51417;BME280;50158;51.528;6.982;2023-01-04T00:30:14;67310;;;8.68;100
51417;BME280;50158;51.528;6.982;2023-01-04T00:31:15;67310;;;8.64;100
51417;BME280;50158;51.528;6.982;2023-01-04T00:32:15;67310;;;8.63;100
51417;BME280;50158;51.528;6.982;2023-01-04T00:33:14;67310;;;8.68;100
51417;BME280;50158;51.528;6.982;2023-01-04T00:34:16;67310;;;8.67;100
51417;BME280;50158;51.528;6.982;2023-01-04T00:35:15;67320;;;8.71;100
51417;BME280;50158;51.528;6.982;2023-01-04T00:36:15;67320;;;8.72;100
51417;BME280;50158;51.528;6.982;2023-01-04T00:37:15;67330;;;8.8;100
51417;BME280;50158;51.528;6.982;2023-01-04T00:39:15;67320;;;8.68;100
51417;BME280;50158;51.528;6.982;2023-01-04T00:40:15;67320;;;8.7;100
51417;BME280;50158;51.528;6.982;2023-01-04T00:41:15;67310;;;8.66;100
51417;BME280;50158;51.528;6.982;2023-01-04T00:42:15;67300;;;8.54;100
51417;BME280;50158;51.528;6.982;2023-01-04T00:43:14;67290;;;8.5;100
51417;BME280;50158;51.528;6.982;2023-01-04T00:44:15;67290;;;8.41;100
51417;BME280;50158;51.528;6.982;2023-01-04T00:45:14;67290;;;8.41;100
51417;BME280;50158;51.528;6.982;2023-01-04T00:46:14;67290;;;8.43;100
51417;BME280;50158;51.528;6.982;2023-01-04T00:47:15;67280;;;8.38;100
51417;BME280;50158;51.528;6.982;2023-01-04T00:49:15;67280;;;8.33;100
51417;BME280;50158;51.528;6.982;2023-01-04T00:50:15;67260;;;8.22;100
51417;BME280;50158;51.528;6.982;2023-01-04T00:51:14;67250;;;8.05;100
51417;BME280;50158;51.528;6.982;2023-01-04T00:52:14;67250;;;8.1;100
51417;BME280;50158;51.528;6.982;2023-01-04T00:53:15;67260;;;8.18;100
51417;BME280;50158;51.528;6.982;2023-01-04T00:55:15;67260;;;8.13;100
51417;BME280;50158;51.528;6.982;2023-01-04T00:56:15;67250;;;8.08;100
51417;BME280;50158;51.528;6.982;2023-01-04T00:57:15;67240;;;8.01;100
51417;BME280;50158;51.528;6.982;2023-01-04T00:58:15;67240;;;7.96;100
51417;BME280;50158;51.528;6.982;2023-01-04T00:59:16;67230;;;7.93;100
51417;BME280;50158;51.528;6.982;2023-01-04T01:00:14;67230;;;7.88;100
51417;BME280;50158;51.528;6.982;2023-01-04T01:01:15;67230;;;7.85;100
51417;BME280;50158;51.528;6.982;2023-01-04T01:02:15;67230;;;7.89;100
51417;BME280;50158;51.528;6.982;2023-01-04T01:03:15;67240;;;7.98;100
51417;BME280;50158;51.528;6.982;2023-01-04T01:04:15;67230;;;7.94;100
51417;BME280;50158;51.528;6.982;2023-01-04T01:05:15;67230;;;7.88;100
51417;BME280;50158;51.528;6.982;2023-01-04T01:06:15;67220;;;7.84;100
51417;BME280;50158;51.528;6.982;2023-01-04T01:07:14;67220;;;7.82;100
51417;BME280;50158;51.528;6.982;2023-01-04T01:08:14;67220;;;7.83;100
51417;BME280;50158;51.528;6.982;2023-01-04T01:09:15;67220;;;7.82;100
51417;BME280;50158;51.528;6.982;2023-01-04T01:10:15;67220;;;7.83;100
51417;BME280;50158;51.528;6.982;2023-01-04T01:11:14;67220;;;7.82;100
51417;BME280;50158;51.528;6.982;2023-01-04T01:12:14;67220;;;7.81;100
51417;BME280;50158;51.528;6.982;2023-01-04T01:13:15;67210;;;7.72;100
51417;BME280;50158;51.528;6.982;2023-01-04T01:14:16;67210;;;7.75;100
51417;BME280;50158;51.528;6.982;2023-01-04T01:15:15;67210;;;7.72;100
51417;BME280;50158;51.528;6.982;2023-01-04T01:17:15;67220;;;7.81;100
51417;BME280;50158;51.528;6.982;2023-01-04T01:18:14;67230;;;7.9;100
51417;BME280;50158;51.528;6.982;2023-01-04T01:19:14;67230;;;7.89;100
51417;BME280;50158;51.528;6.982;2023-01-04T01:20:15;67240;;;7.98;100
51417;BME280;50158;51.528;6.982;2023-01-04T01:21:15;67220;;;7.84;100
51417;BME280;50158;51.528;6.982;2023-01-04T01:22:15;67220;;;7.78;100
51417;BME280;50158;51.528;6.982;2023-01-04T01:23:14;67230;;;7.86;100
51417;BME280;50158;51.528;6.982;2023-01-04T01:24:16;67240;;;8.02;100
51417;BME280;50158;51.528;6.982;2023-01-04T01:25:15;67240;;;7.96;100
51417;BME280;50158;51.528;6.982;2023-01-04T01:26:15;67210;;;7.71;100
51417;BME280;50158;51.528;6.982;2023-01-04T01:27:14;67210;;;7.72;100
51417;BME280;50158;51.528;6.982;2023-01-04T01:29:15;67200;;;7.58;100
51417;BME280;50158;51.528;6.982;2023-01-04T01:30:14;67200;;;7.61;100
51417;BME280;50158;51.528;6.982;2023-01-04T01:33:22;67190;;;7.56;100
51417;BME280;50158;51.528;6.982;2023-01-04T01:34:22;67200;;;7.59;100
51417;BME280;50158;51.528;6.982;2023-01-04T01:36:15;67190;;;7.52;100
51417;BME280;50158;51.528;6.982;2023-01-04T01:37:14;67190;;;7.56;100
51417;BME280;50158;51.528;6.982;2023-01-04T01:38:14;67190;;;7.51;100
51417;BME280;50158;51.528;6.982;2023-01-04T01:39:15;67200;;;7.6;100
51417;BME280;50158;51.528;6.982;2023-01-04T01:40:15;67190;;;7.56;100
51417;BME280;50158;51.528;6.982;2023-01-04T01:41:17;67190;;;7.53;100
51417;BME280;50158;51.528;6.982;2023-01-04T01:42:17;67190;;;7.52;100
51417;BME280;50158;51.528;6.982;2023-01-04T01:43:16;67200;;;7.63;100
51417;BME280;50158;51.528;6.982;2023-01-04T01:45:21;67180;;;7.48;100
51417;BME280;50158;51.528;6.982;2023-01-04T01:46:16;67180;;;7.48;100
51417;BME280;50158;51.528;6.982;2023-01-04T01:47:16;67190;;;7.54;100
51417;BME280;50158;51.528;6.982;2023-01-04T01:48:16;67190;;;7.54;100
51417;BME280;50158;51.528;6.982;2023-01-04T01:49:24;67190;;;7.51;100
51417;BME280;50158;51.528;6.982;2023-01-04T01:50:18;67190;;;7.51;100
51417;BME280;50158;51.528;6.982;2023-01-04T01:51:15;67190;;;7.55;100
51417;BME280;50158;51.528;6.982;2023-01-04T01:52:16;67200;;;7.63;100
51417;BME280;50158;51.528;6.982;2023-01-04T01:53:15;67200;;;7.59;100
51417;BME280;50158;51.528;6.982;2023-01-04T01:54:16;67190;;;7.55;100
51417;BME280;50158;51.528;6.982;2023-01-04T01:55:14;67200;;;7.61;100
51417;BME280;50158;51.528;6.982;2023-01-04T01:56:15;67200;;;7.58;100
51417;BME280;50158;51.528;6.982;2023-01-04T01:57:17;67190;;;7.55;100
51417;BME280;50158;51.528;6.982;2023-01-04T01:58:17;67190;;;7.53;100
51417;BME280;50158;51.528;6.982;2023-01-04T01:59:15;67190;;;7.57;100
51417;BME280;50158;51.528;6.982;2023-01-04T02:00:15;67200;;;7.64;100
51417;BME280;50158;51.528;6.982;2023-01-04T02:01:15;67200;;;7.65;100
51417;BME280;50158;51.528;6.982;2023-01-04T02:02:14;67190;;;7.54;100
51417;BME280;50158;51.528;6.982;2023-01-04T02:03:15;67190;;;7.54;100
51417;BME280;50158;51.528;6.982;2023-01-04T02:04:15;67190;;;7.57;100
51417;BME280;50158;51.528;6.982;2023-01-04T02:05:15;67200;;;7.63;100
51417;BME280;50158;51.528;6.982;2023-01-04T02:06:17;67200;;;7.6;100
51417;BME280;50158;51.528;6.982;2023-01-04T02:07:15;67190;;;7.49;100
51417;BME280;50158;51.528;6.982;2023-01-04T02:08:15;67230;;;7.91;100
51417;BME280;50158;51.528;6.982;2023-01-04T02:09:14;67210;;;7.72;100
51417;BME280;50158;51.528;6.982;2023-01-04T02:10:15;67200;;;7.6;100
51417;BME280;50158;51.528;6.982;2023-01-04T02:11:15;67310;;;8.63;100
51417;BME280;50158;51.528;6.982;2023-01-04T02:12:15;67220;;;7.83;100
51417;BME280;50158;51.528;6.982;2023-01-04T02:14:15;67190;;;7.53;100
51417;BME280;50158;51.528;6.982;2023-01-04T02:15:15;67190;;;7.5;100
51417;BME280;50158;51.528;6.982;2023-01-04T02:16:19;67190;;;7.56;100
51417;BME280;50158;51.528;6.982;2023-01-04T02:17:18;67190;;;7.56;100
51417;BME280;50158;51.528;6.982;2023-01-04T02:18:17;67200;;;7.61;100
51417;BME280;50158;51.528;6.982;2023-01-04T02:19:20;67190;;;7.53;100
51417;BME280;50158;51.528;6.982;2023-01-04T02:21:19;67180;;;7.46;100
51417;BME280;50158;51.528;6.982;2023-01-04T02:21:20;67190;;;7.52;100
51417;BME280;50158;51.528;6.982;2023-01-04T02:22:24;67190;;;7.5;100
51417;BME280;50158;51.528;6.982;2023-01-04T02:23:53;67190;;;7.53;100
51417;BME280;50158;51.528;6.982;2023-01-04T02:24:20;67200;;;7.58;100
51417;BME280;50158;51.528;6.982;2023-01-04T02:25:20;67200;;;7.58;100
51417;BME280;50158;51.528;6.982;2023-01-04T02:26:23;67200;;;7.6;100
51417;BME280;50158;51.528;6.982;2023-01-04T02:27:49;67190;;;7.49;100
51417;BME280;50158;51.528;6.982;2023-01-04T02:29:20;67200;;;7.61;100
51417;BME280;50158;51.528;6.982;2023-01-04T02:31:20;67190;;;7.54;100
51417;BME280;50158;51.528;6.982;2023-01-04T02:32:17;67190;;;7.53;100
51417;BME280;50158;51.528;6.982;2023-01-04T02:34:20;67190;;;7.54;100
51417;BME280;50158;51.528;6.982;2023-01-04T02:35:33;67190;;;7.55;100
51417;BME280;50158;51.528;6.982;2023-01-04T02:36:20;67220;;;7.81;100
51417;BME280;50158;51.528;6.982;2023-01-04T02:37:17;67200;;;7.66;100
51417;BME280;50158;51.528;6.982;2023-01-04T02:38:20;67250;;;8.1;100
51417;BME280;50158;51.528;6.982;2023-01-04T02:39:19;67220;;;7.78;100
51417;BME280;50158;51.528;6.982;2023-01-04T02:40:20;67200;;;7.64;100
51417;BME280;50158;51.528;6.982;2023-01-04T02:41:49;67200;;;7.61;100
51417;BME280;50158;51.528;6.982;2023-01-04T02:42:17;67200;;;7.63;100
51417;BME280;50158;51.528;6.982;2023-01-04T02:43:25;67210;;;7.69;100
51417;BME280;50158;51.528;6.982;2023-01-04T02:44:16;67210;;;7.68;100
51417;BME280;50158;51.528;6.982;2023-01-04T02:45:16;67210;;;7.71;100
51417;BME280;50158;51.528;6.982;2023-01-04T02:46:16;67210;;;7.68;100
51417;BME280;50158;51.528;6.982;2023-01-04T02:47:16;67200;;;7.67;100
51417;BME280;50158;51.528;6.982;2023-01-04T02:48:15;67210;;;7.67;100
51417;BME280;50158;51.528;6.982;2023-01-04T02:49:14;67200;;;7.65;100
51417;BME280;50158;51.528;6.982;2023-01-04T02:50:18;67200;;;7.64;100
51417;BME280;50158;51.528;6.982;2023-01-04T02:51:31;67210;;;7.68;100
51417;BME280;50158;51.528;6.982;2023-01-04T02:52:14;67210;;;7.74;100
51417;BME280;50158;51.528;6.982;2023-01-04T02:53:18;67220;;;7.76;100
51417;BME280;50158;51.528;6.982;2023-01-04T02:54:17;67210;;;7.75;100
51417;BME280;50158;51.528;6.982;2023-01-04T02:55:14;67220;;;7.81;100
51417;BME280;50158;51.528;6.982;2023-01-04T02:56:18;67220;;;7.78;100
51417;BME280;50158;51.528;6.982;2023-01-04T02:57:19;67220;;;7.82;100
51417;BME280;50158;51.528;6.982;2023-01-04T02:58:20;67220;;;7.77;100
51417;BME280;50158;51.528;6.982;2023-01-04T02:59:34;67220;;;7.84;100
51417;BME280;50158;51.528;6.982;2023-01-04T03:00:19;67220;;;7.85;100
51417;BME280;50158;51.528;6.982;2023-01-04T03:02:20;67230;;;7.89;100
51417;BME280;50158;51.528;6.982;2023-01-04T03:03:16;67230;;;7.88;100
51417;BME280;50158;51.528;6.982;2023-01-04T03:04:51;67230;;;7.91;100
51417;BME280;50158;51.528;6.982;2023-01-04T03:05:21;67220;;;7.86;100
51417;BME280;50158;51.528;6.982;2023-01-04T03:06:16;67230;;;7.87;100
51417;BME280;50158;51.528;6.982;2023-01-04T03:07:17;67230;;;7.87;100
51417;BME280;50158;51.528;6.982;2023-01-04T03:08:21;67230;;;7.92;100
51417;BME280;50158;51.528;6.982;2023-01-04T03:09:19;67230;;;7.95;100
51417;BME280;50158;51.528;6.982;2023-01-04T03:10:19;67230;;;7.88;100
51417;BME280;50158;51.528;6.982;2023-01-04T03:11:15;67230;;;7.93;100
51417;BME280;50158;51.528;6.982;2023-01-04T03:12:16;67230;;;7.94;100
51417;BME280;50158;51.528;6.982;2023-01-04T03:13:17;67240;;;8.02;100
51417;BME280;50158;51.528;6.982;2023-01-04T03:14:16;67230;;;7.87;100
51417;BME280;50158;51.528;6.982;2023-01-04T03:15:16;67280;;;8.35;100
51417;BME280;50158;51.528;6.982;2023-01-04T03:16:16;67250;;;8.1;100
51417;BME280;50158;51.528;6.982;2023-01-04T03:17:15;67240;;;7.97;100
51417;BME280;50158;51.528;6.982;2023-01-04T03:18:16;67250;;;8.07;100
51417;BME280;50158;51.528;6.982;2023-01-04T03:19:15;67230;;;7.93;100
51417;BME280;50158;51.528;6.982;2023-01-04T03:20:15;67230;;;7.93;100
51417;BME280;50158;51.528;6.982;2023-01-04T03:21:14;67230;;;7.91;100
51417;BME280;50158;51.528;6.982;2023-01-04T03:22:15;67230;;;7.89;100
51417;BME280;50158;51.528;6.982;2023-01-04T03:23:15;67230;;;7.88;100
51417;BME280;50158;51.528;6.982;2023-01-04T03:24:15;67230;;;7.9;100
51417;BME280;50158;51.528;6.982;2023-01-04T03:25:14;67230;;;7.94;100
51417;BME280;50158;51.528;6.982;2023-01-04T03:26:31;67230;;;7.86;100
51417;BME280;50158;51.528;6.982;2023-01-04T03:27:14;67230;;;7.87;100
51417;BME280;50158;51.528;6.982;2023-01-04T03:28:15;67220;;;7.84;100
51417;BME280;50158;51.528;6.982;2023-01-04T03:29:16;67230;;;7.92;100
51417;BME280;50158;51.528;6.982;2023-01-04T03:30:15;67240;;;8.02;100
51417;BME280;50158;51.528;6.982;2023-01-04T03:31:18;67240;;;8.02;100
51417;BME280;50158;51.528;6.982;2023-01-04T03:32:17;67240;;;8;100
51417;BME280;50158;51.528;6.982;2023-01-04T03:33:15;67240;;;8.03;100
51417;BME280;50158;51.528;6.982;2023-01-04T03:34:13;67290;;;8.41;100
51417;BME280;50158;51.528;6.982;2023-01-04T03:35:15;67270;;;8.24;100
51417;BME280;50158;51.528;6.982;2023-01-04T03:36:18;67300;;;8.52;100
51417;BME280;50158;51.528;6.982;2023-01-04T03:37:17;67260;;;8.22;100
51417;BME280;50158;51.528;6.982;2023-01-04T03:38:25;67260;;;8.14;100
51417;BME280;50158;51.528;6.982;2023-01-04T03:40:19;67240;;;8.03;100
51417;BME280;50158;51.528;6.982;2023-01-04T03:41:18;67240;;;8.02;100
51417;BME280;50158;51.528;6.982;2023-01-04T03:43:15;67400;;;9.46;100
51417;BME280;50158;51.528;6.982;2023-01-04T03:44:23;67350;;;9.05;100
51417;BME280;50158;51.528;6.982;2023-01-04T03:45:16;67320;;;8.7;100
51417;BME280;50158;51.528;6.982;2023-01-04T03:47:16;67300;;;8.56;100
51417;BME280;50158;51.528;6.982;2023-01-04T03:48:18;67310;;;8.67;100
51417;BME280;50158;51.528;6.982;2023-01-04T03:49:19;67300;;;8.55;100
51417;BME280;50158;51.528;6.982;2023-01-04T03:52:22;67300;;;8.54;100
51417;BME280;50158;51.528;6.982;2023-01-04T03:53:22;67300;;;8.57;100
51417;BME280;50158;51.528;6.982;2023-01-04T03:54:24;67300;;;8.55;100
51417;BME280;50158;51.528;6.982;2023-01-04T03:55:14;67300;;;8.58;100
51417;BME280;50158;51.528;6.982;2023-01-04T03:56:15;67310;;;8.6;100
51417;BME280;50158;51.528;6.982;2023-01-04T03:57:14;67300;;;8.55;100
51417;BME280;50158;51.528;6.982;2023-01-04T03:58:16;67300;;;8.55;100
51417;BME280;50158;51.528;6.982;2023-01-04T03:59:15;67300;;;8.58;100
51417;BME280;50158;51.528;6.982;2023-01-04T04:00:16;67300;;;8.55;100
51417;BME280;50158;51.528;6.982;2023-01-04T04:01:17;67290;;;8.47;100
51417;BME280;50158;51.528;6.982;2023-01-04T04:02:15;67310;;;8.62;100
51417;BME280;50158;51.528;6.982;2023-01-04T04:03:14;67300;;;8.55;100
51417;BME280;50158;51.528;6.982;2023-01-04T04:04:15;67290;;;8.5;100
51417;BME280;50158;51.528;6.982;2023-01-04T04:05:17;67290;;;8.43;100
51417;BME280;50158;51.528;6.982;2023-01-04T04:06:15;67280;;;8.38;100
51417;BME280;50158;51.528;6.982;2023-01-04T04:07:14;67280;;;8.39;100
51417;BME280;50158;51.528;6.982;2023-01-04T04:08:15;67280;;;8.41;100
51417;BME280;50158;51.528;6.982;2023-01-04T04:09:15;67290;;;8.47;100
51417;BME280;50158;51.528;6.982;2023-01-04T04:10:14;67290;;;8.49;100
51417;BME280;50158;51.528;6.982;2023-01-04T04:12:14;67300;;;8.53;100
51417;BME280;50158;51.528;6.982;2023-01-04T04:13:15;67310;;;8.64;100
51417;BME280;50158;51.528;6.982;2023-01-04T04:14:15;67310;;;8.6;100
51417;BME280;50158;51.528;6.982;2023-01-04T04:15:14;67300;;;8.56;100
51417;BME280;50158;51.528;6.982;2023-01-04T04:16:15;67300;;;8.57;100
51417;BME280;50158;51.528;6.982;2023-01-04T04:17:15;67300;;;8.54;100
51417;BME280;50158;51.528;6.982;2023-01-04T04:18:15;67300;;;8.59;100
51417;BME280;50158;51.528;6.982;2023-01-04T04:19:15;67300;;;8.52;100
51417;BME280;50158;51.528;6.982;2023-01-04T04:20:15;67300;;;8.54;100
51417;BME280;50158;51.528;6.982;2023-01-04T04:21:14;67300;;;8.6;100
51417;BME280;50158;51.528;6.982;2023-01-04T04:22:14;67300;;;8.55;100
51417;BME280;50158;51.528;6.982;2023-01-04T04:23:14;67310;;;8.64;100
51417;BME280;50158;51.528;6.982;2023-01-04T04:24:16;67310;;;8.66;100
51417;BME280;50158;51.528;6.982;2023-01-04T04:25:14;67310;;;8.6;100
51417;BME280;50158;51.528;6.982;2023-01-04T04:26:15;67310;;;8.7;100
51417;BME280;50158;51.528;6.982;2023-01-04T04:27:14;67320;;;8.71;100
51417;BME280;50158;51.528;6.982;2023-01-04T04:28:14;67310;;;8.68;100
51417;BME280;50158;51.528;6.982;2023-01-04T04:29:15;67320;;;8.74;100
51417;BME280;50158;51.528;6.982;2023-01-04T04:30:15;67320;;;8.72;100
51417;BME280;50158;51.528;6.982;2023-01-04T04:31:15;67330;;;8.85;100
51417;BME280;50158;51.528;6.982;2023-01-04T04:32:14;67350;;;8.97;100
51417;BME280;50158;51.528;6.982;2023-01-04T04:33:14;67350;;;9;100
51417;BME280;50158;51.528;6.982;2023-01-04T04:34:14;67350;;;9;100
51417;BME280;50158;51.528;6.982;2023-01-04T04:35:15;67350;;;8.99;100
51417;BME280;50158;51.528;6.982;2023-01-04T04:36:14;67350;;;9.01;100
51417;BME280;50158;51.528;6.982;2023-01-04T04:37:14;67360;;;9.09;100
51417;BME280;50158;51.528;6.982;2023-01-04T04:38:15;67360;;;9.1;100
51417;BME280;50158;51.528;6.982;2023-01-04T04:39:14;67360;;;9.13;100
51417;BME280;50158;51.528;6.982;2023-01-04T04:40:15;67370;;;9.16;100
51417;BME280;50158;51.528;6.982;2023-01-04T04:41:14;67360;;;9.12;100
51417;BME280;50158;51.528;6.982;2023-01-04T04:42:15;67350;;;8.99;100
51417;BME280;50158;51.528;6.982;2023-01-04T04:43:15;67350;;;8.99;100
51417;BME280;50158;51.528;6.982;2023-01-04T04:44:16;67350;;;9.02;100
51417;BME280;50158;51.528;6.982;2023-01-04T04:45:14;67350;;;9.03;100
51417;BME280;50158;51.528;6.982;2023-01-04T04:46:14;67360;;;9.1;100
51417;BME280;50158;51.528;6.982;2023-01-04T04:47:14;67370;;;9.18;100
51417;BME280;50158;51.528;6.982;2023-01-04T04:48:15;67380;;;9.31;100
51417;BME280;50158;51.528;6.982;2023-01-04T04:49:15;67370;;;9.22;100
51417;BME280;50158;51.528;6.982;2023-01-04T04:50:14;67380;;;9.32;100
51417;BME280;50158;51.528;6.982;2023-01-04T04:51:13;67370;;;9.18;100
51417;BME280;50158;51.528;6.982;2023-01-04T04:52:14;67380;;;9.33;100
51417;BME280;50158;51.528;6.982;2023-01-04T04:53:14;67380;;;9.33;100
51417;BME280;50158;51.528;6.982;2023-01-04T04:54:16;67400;;;9.43;100
51417;BME280;50158;51.528;6.982;2023-01-04T04:55:14;67390;;;9.39;100
51417;BME280;50158;51.528;6.982;2023-01-04T04:56:15;67390;;;9.43;100
51417;BME280;50158;51.528;6.982;2023-01-04T04:57:14;67410;;;9.6;100
51417;BME280;50158;51.528;6.982;2023-01-04T04:58:14;67410;;;9.6;100
51417;BME280;50158;51.528;6.982;2023-01-04T04:59:15;67400;;;9.53;100
51417;BME280;50158;51.528;6.982;2023-01-04T05:00:14;67410;;;9.6;100
51417;BME280;50158;51.528;6.982;2023-01-04T05:01:15;67410;;;9.6;100
51417;BME280;50158;51.528;6.982;2023-01-04T05:02:15;67410;;;9.6;100
51417;BME280;50158;51.528;6.982;2023-01-04T05:03:14;67420;;;9.67;100
51417;BME280;50158;51.528;6.982;2023-01-04T05:04:14;67430;;;9.72;100
51417;BME280;50158;51.528;6.982;2023-01-04T05:05:15;67420;;;9.71;100
51417;BME280;50158;51.528;6.982;2023-01-04T05:06:14;67430;;;9.72;100
51417;BME280;50158;51.528;6.982;2023-01-04T05:08:15;67440;;;9.84;100
51417;BME280;50158;51.528;6.982;2023-01-04T05:09:15;67450;;;9.89;100
51417;BME280;50158;51.528;6.982;2023-01-04T05:10:15;67450;;;9.91;100
51417;BME280;50158;51.528;6.982;2023-01-04T05:11:14;67450;;;9.91;100
51417;BME280;50158;51.528;6.982;2023-01-04T05:12:15;67440;;;9.87;100
51417;BME280;50158;51.528;6.982;2023-01-04T05:13:15;67440;;;9.85;100
51417;BME280;50158;51.528;6.982;2023-01-04T05:14:14;67460;;;10.02;100
51417;BME280;50158;51.528;6.982;2023-01-04T05:15:14;67450;;;9.97;100
51417;BME280;50158;51.528;6.982;2023-01-04T05:16:14;67460;;;10.01;100
51417;BME280;50158;51.528;6.982;2023-01-04T05:17:15;67450;;;9.93;100
51417;BME280;50158;51.528;6.982;2023-01-04T05:18:15;67450;;;9.96;100
51417;BME280;50158;51.528;6.982;2023-01-04T05:19:15;67450;;;9.95;100
51417;BME280;50158;51.528;6.982;2023-01-04T05:20:14;67460;;;10.02;100
51417;BME280;50158;51.528;6.982;2023-01-04T05:21:15;67460;;;10.01;100
51417;BME280;50158;51.528;6.982;2023-01-04T05:22:14;67450;;;9.92;100
51417;BME280;50158;51.528;6.982;2023-01-04T05:23:16;67450;;;9.97;100
51417;BME280;50158;51.528;6.982;2023-01-04T05:24:15;67450;;;9.97;100
51417;BME280;50158;51.528;6.982;2023-01-04T05:25:14;67460;;;10.06;100
51417;BME280;50158;51.528;6.982;2023-01-04T05:26:15;67460;;;10.06;100
51417;BME280;50158;51.528;6.982;2023-01-04T05:27:14;67450;;;9.97;100
51417;BME280;50158;51.528;6.982;2023-01-04T05:28:14;67460;;;10.06;100
51417;BME280;50158;51.528;6.982;2023-01-04T05:29:15;67460;;;10.07;100
51417;BME280;50158;51.528;6.982;2023-01-04T05:30:16;67470;;;10.08;100
51417;BME280;50158;51.528;6.982;2023-01-04T05:31:15;67470;;;10.12;100
51417;BME280;50158;51.528;6.982;2023-01-04T05:32:14;67470;;;10.1;100
51417;BME280;50158;51.528;6.982;2023-01-04T05:33:16;67470;;;10.16;100
51417;BME280;50158;51.528;6.982;2023-01-04T05:34:14;67480;;;10.18;100
51417;BME280;50158;51.528;6.982;2023-01-04T05:35:14;67470;;;10.17;100
51417;BME280;50158;51.528;6.982;2023-01-04T05:36:14;67460;;;10.03;100
51417;BME280;50158;51.528;6.982;2023-01-04T05:37:15;67450;;;9.97;100
51417;BME280;50158;51.528;6.982;2023-01-04T05:38:15;67460;;;10.02;100
51417;BME280;50158;51.528;6.982;2023-01-04T05:39:14;67450;;;9.96;100
51417;BME280;50158;51.528;6.982;2023-01-04T05:40:15;67460;;;10.07;100
51417;BME280;50158;51.528;6.982;2023-01-04T05:41:14;67470;;;10.13;100
51417;BME280;50158;51.528;6.982;2023-01-04T05:42:15;67480;;;10.17;100
51417;BME280;50158;51.528;6.982;2023-01-04T05:43:15;67480;;;10.18;100
51417;BME280;50158;51.528;6.982;2023-01-04T05:44:15;67470;;;10.16;100
51417;BME280;50158;51.528;6.982;2023-01-04T05:45:15;67480;;;10.21;100
51417;BME280;50158;51.528;6.982;2023-01-04T05:46:14;67480;;;10.24;100
51417;BME280;50158;51.528;6.982;2023-01-04T05:47:14;67480;;;10.24;100
51417;BME280;50158;51.528;6.982;2023-01-04T05:48:15;67480;;;10.25;100
51417;BME280;50158;51.528;6.982;2023-01-04T05:49:15;67470;;;10.14;100
51417;BME280;50158;51.528;6.982;2023-01-04T05:51:14;67500;;;10.39;100
51417;BME280;50158;51.528;6.982;2023-01-04T05:52:15;67500;;;10.37;100
51417;BME280;50158;51.528;6.982;2023-01-04T05:53:15;67490;;;10.28;100
51417;BME280;50158;51.528;6.982;2023-01-04T05:54:15;67490;;;10.29;100
51417;BME280;50158;51.528;6.982;2023-01-04T05:55:14;67480;;;10.27;100
51417;BME280;50158;51.528;6.982;2023-01-04T05:56:14;67480;;;10.25;100
51417;BME280;50158;51.528;6.982;2023-01-04T05:57:15;67490;;;10.29;100
51417;BME280;50158;51.528;6.982;2023-01-04T05:58:15;67490;;;10.35;100
51417;BME280;50158;51.528;6.982;2023-01-04T05:59:15;67500;;;10.42;100
51417;BME280;50158;51.528;6.982;2023-01-04T06:00:14;67500;;;10.42;100
51417;BME280;50158;51.528;6.982;2023-01-04T06:01:14;67510;;;10.47;100
51417;BME280;50158;51.528;6.982;2023-01-04T06:02:16;67510;;;10.46;100
51417;BME280;50158;51.528;6.982;2023-01-04T06:03:14;67510;;;10.45;100
51417;BME280;50158;51.528;6.982;2023-01-04T06:04:14;67520;;;10.55;100
51417;BME280;50158;51.528;6.982;2023-01-04T06:05:15;67520;;;10.57;100
51417;BME280;50158;51.528;6.982;2023-01-04T06:06:14;67510;;;10.53;100
51417;BME280;50158;51.528;6.982;2023-01-04T06:07:15;67520;;;10.58;100
51417;BME280;50158;51.528;6.982;2023-01-04T06:08:14;67510;;;10.5;100
51417;BME280;50158;51.528;6.982;2023-01-04T06:09:15;67520;;;10.55;100